createdAt,value
2019-03-30T00:02:23.403Z,75.82
2019-03-30T00:04:51.218Z,76.56
2019-03-30T00:07:19.086Z,73.22
2019-03-30T00:09:47.223Z,75.84
2019-03-30T00:12:14.687Z,75.44
2019-03-30T00:14:42.500Z,75.88
2019-03-30T00:17:10.290Z,75.66
2019-03-30T00:19:38.207Z,73.76
2019-03-30T00:22:05.982Z,75.63
2019-03-30T00:24:33.866Z,76.53
2019-03-30T00:27:01.648Z,77.09
2019-03-30T00:29:29.582Z,77.40
2019-03-30T00:31:57.373Z,78.17
2019-03-30T00:34:25.181Z,75.38
2019-03-30T00:36:52.978Z,76.55
2019-03-30T00:39:20.769Z,77.62
2019-03-30T00:41:48.553Z,77.55
2019-03-30T00:44:16.359Z,77.14
2019-03-30T00:46:44.131Z,76.76
2019-03-30T00:49:11.926Z,77.19
2019-03-30T00:51:39.710Z,77.71
2019-03-30T00:54:07.513Z,75.44
2019-03-30T00:56:35.306Z,77.21
2019-03-30T00:59:03.127Z,77.72
2019-03-30T01:01:30.904Z,75.79
2019-03-30T01:03:58.708Z,77.61
2019-03-30T01:06:26.508Z,77.52
2019-03-30T01:08:54.305Z,75.61
2019-03-30T01:11:22.086Z,76.91
2019-03-30T01:13:49.909Z,77.94
2019-03-30T01:16:17.710Z,77.56
2019-03-30T01:18:45.513Z,77.31
2019-03-30T01:21:13.289Z,77.66
2019-03-30T01:23:41.094Z,77.50
2019-03-30T01:26:08.890Z,76.96
2019-03-30T01:28:36.693Z,76.30
2019-03-30T01:31:04.525Z,74.72
2019-03-30T01:33:32.345Z,73.62
2019-03-30T01:36:00.169Z,75.34
2019-03-30T01:38:28.049Z,75.99
2019-03-30T01:40:55.880Z,76.69
2019-03-30T01:43:23.701Z,77.12
2019-03-30T01:45:51.505Z,74.85
2019-03-30T01:48:19.282Z,76.61
2019-03-30T01:50:47.179Z,78.00
2019-03-30T01:53:14.886Z,77.57
2019-03-30T01:55:42.691Z,77.94
2019-03-30T01:58:10.487Z,78.93
2019-03-30T02:00:38.308Z,79.53
2019-03-30T02:03:06.097Z,80.58
2019-03-30T02:05:33.890Z,77.47
2019-03-30T02:08:01.682Z,80.71
2019-03-30T02:10:40.566Z,80.05
2019-03-30T02:13:08.382Z,80.42
2019-03-30T02:15:36.186Z,79.26
2019-03-30T02:18:03.999Z,80.03
2019-03-30T02:20:39.258Z,80.15
2019-03-30T02:23:07.069Z,80.96
2019-03-30T02:25:34.885Z,80.23
2019-03-30T02:28:02.666Z,80.10
2019-03-30T02:30:30.491Z,80.65
2019-03-30T02:32:58.267Z,80.45
2019-03-30T02:35:26.621Z,82.42
2019-03-30T02:37:53.871Z,81.95
2019-03-30T02:40:21.667Z,81.39
2019-03-30T02:42:49.458Z,80.60
2019-03-30T02:45:17.280Z,80.16
2019-03-30T02:47:45.056Z,80.88
2019-03-30T02:50:12.858Z,81.43
2019-03-30T02:52:40.658Z,81.07
2019-03-30T02:55:12.442Z,80.75
2019-03-30T02:57:36.298Z,80.96
2019-03-30T03:00:04.142Z,81.55
2019-03-30T03:02:31.923Z,81.82
2019-03-30T03:04:59.732Z,82.54
2019-03-30T03:07:27.513Z,82.24
2019-03-30T03:09:55.310Z,81.85
2019-03-30T03:12:23.123Z,81.38
2019-03-30T03:14:50.993Z,80.84
2019-03-30T03:17:18.770Z,81.27
2019-03-30T03:19:46.580Z,79.27
2019-03-30T03:22:14.363Z,80.46
2019-03-30T03:24:42.181Z,80.54
2019-03-30T03:27:09.968Z,81.22
2019-03-30T03:29:37.768Z,82.17
2019-03-30T03:32:05.558Z,81.53
2019-03-30T03:34:33.348Z,81.95
2019-03-30T03:37:01.238Z,80.76
2019-03-30T03:39:29.064Z,80.70
2019-03-30T03:41:56.868Z,80.92
2019-03-30T03:44:24.686Z,80.87
2019-03-30T03:46:52.491Z,78.77
2019-03-30T03:49:20.275Z,80.63
2019-03-30T03:51:48.083Z,81.82
2019-03-30T03:54:15.926Z,82.08
2019-03-30T03:56:43.799Z,81.32
2019-03-30T03:59:11.583Z,81.37
2019-03-30T04:01:39.410Z,78.83
2019-03-30T04:04:07.234Z,80.81
2019-03-30T04:06:35.091Z,79.97
2019-03-30T04:09:04.108Z,79.69
2019-03-30T04:11:32.030Z,80.97
2019-03-30T04:14:00.167Z,80.94
2019-03-30T04:16:28.180Z,81.59
2019-03-30T04:18:55.966Z,82.06
2019-03-30T04:21:23.768Z,82.63
2019-03-30T04:23:54.292Z,83.40
2019-03-30T04:26:19.379Z,81.98
2019-03-30T04:28:47.167Z,82.94
2019-03-30T04:31:14.958Z,82.87
2019-03-30T04:33:42.767Z,83.64
2019-03-30T04:36:10.569Z,84.11
2019-03-30T04:38:38.606Z,85.26
2019-03-30T04:41:06.408Z,85.20
2019-03-30T04:43:34.213Z,84.14
2019-03-30T04:46:02.007Z,84.98
2019-03-30T04:48:30.306Z,85.17
2019-03-30T04:50:58.118Z,85.51
2019-03-30T04:53:25.925Z,83.79
2019-03-30T04:55:53.722Z,84.40
2019-03-30T04:58:21.498Z,83.06
2019-03-30T05:00:49.322Z,81.90
2019-03-30T05:03:17.105Z,83.23
2019-03-30T05:05:44.910Z,84.31
2019-03-30T05:08:12.698Z,84.90
2019-03-30T05:10:40.498Z,85.12
2019-03-30T05:13:08.347Z,84.80
2019-03-30T05:15:36.152Z,82.37
2019-03-30T05:18:04.030Z,81.25
2019-03-30T05:20:31.805Z,81.12
2019-03-30T05:22:59.639Z,80.83
2019-03-30T05:25:27.446Z,83.74
2019-03-30T05:27:55.262Z,84.05
2019-03-30T05:30:23.049Z,83.27
2019-03-30T05:33:04.640Z,82.06
2019-03-30T05:35:18.637Z,82.75
2019-03-30T05:37:46.490Z,82.17
2019-03-30T05:40:14.360Z,82.73
2019-03-30T05:42:42.166Z,83.57
2019-03-30T05:45:09.972Z,83.82
2019-03-30T05:47:37.782Z,83.44
2019-03-30T05:50:05.712Z,82.97
2019-03-30T05:52:35.670Z,83.49
2019-03-30T05:55:01.359Z,83.41
2019-03-30T05:57:29.274Z,82.35
2019-03-30T05:59:57.098Z,82.72
2019-03-30T06:02:24.902Z,83.57
2019-03-30T06:04:52.693Z,83.37
2019-03-30T06:07:20.498Z,82.72
2019-03-30T06:09:48.282Z,83.25
2019-03-30T06:12:16.089Z,82.80
2019-03-30T06:14:43.884Z,81.68
2019-03-30T06:17:11.665Z,80.38
2019-03-30T06:19:39.457Z,80.69
2019-03-30T06:22:07.273Z,77.28
2019-03-30T06:24:35.050Z,78.27
2019-03-30T06:27:02.863Z,79.57
2019-03-30T06:29:30.649Z,79.79
2019-03-30T06:31:58.447Z,79.91
2019-03-30T06:34:26.253Z,78.83
2019-03-30T06:36:54.058Z,78.93
2019-03-30T06:39:21.838Z,79.09
2019-03-30T06:41:49.638Z,78.60
2019-03-30T06:44:17.437Z,79.61
2019-03-30T06:46:45.429Z,79.40
2019-03-30T06:49:13.237Z,78.61
2019-03-30T06:51:41.046Z,79.93
2019-03-30T06:54:08.826Z,79.34
2019-03-30T06:56:36.614Z,78.72
2019-03-30T06:59:04.396Z,78.10
2019-03-30T07:01:32.185Z,77.89
2019-03-30T07:03:59.986Z,76.85
2019-03-30T07:06:27.804Z,77.79
2019-03-30T07:08:55.585Z,75.25
2019-03-30T07:11:23.871Z,76.40
2019-03-30T07:13:51.650Z,75.68
2019-03-30T07:16:19.454Z,75.35
2019-03-30T07:18:47.387Z,75.32
2019-03-30T07:21:15.164Z,74.85
2019-03-30T07:23:42.969Z,74.31
2019-03-30T07:26:10.751Z,73.80
2019-03-30T07:28:38.572Z,73.04
2019-03-30T07:31:06.363Z,73.28
2019-03-30T07:33:34.169Z,71.86
2019-03-30T07:36:01.966Z,71.62
2019-03-30T07:38:29.791Z,72.21
2019-03-30T07:40:57.574Z,72.36
2019-03-30T07:43:25.361Z,71.26
2019-03-30T07:45:53.138Z,71.63
2019-03-30T07:48:20.946Z,70.79
2019-03-30T07:50:48.915Z,70.31
2019-03-30T07:53:26.449Z,69.41
2019-03-30T07:55:44.493Z,70.00
2019-03-30T07:58:12.286Z,68.53
2019-03-30T08:00:40.071Z,68.16
2019-03-30T08:03:07.875Z,67.35
2019-03-30T08:05:35.649Z,67.48
2019-03-30T08:08:03.457Z,67.36
2019-03-30T08:10:31.243Z,66.78
2019-03-30T08:12:59.347Z,65.79
2019-03-30T08:15:27.133Z,65.54
2019-03-30T08:17:54.938Z,65.04
2019-03-30T08:20:22.718Z,64.41
2019-03-30T08:22:50.514Z,63.28
2019-03-30T08:25:18.318Z,63.97
2019-03-30T08:27:46.119Z,63.79
2019-03-30T08:30:13.907Z,64.06
2019-03-30T08:32:41.703Z,63.80
2019-03-30T08:35:09.616Z,62.18
2019-03-30T08:37:37.467Z,63.38
2019-03-30T08:40:05.338Z,61.65
2019-03-30T08:42:33.170Z,62.59
2019-03-30T08:45:00.970Z,60.66
2019-03-30T08:47:28.770Z,59.49
2019-03-30T08:49:57.187Z,58.33
2019-03-30T08:52:24.987Z,59.31
2019-03-30T08:54:52.769Z,58.95
2019-03-30T08:57:20.545Z,58.81
2019-03-30T08:59:48.349Z,56.55
2019-03-30T09:02:16.138Z,56.29
2019-03-30T09:04:43.938Z,57.00
2019-03-30T09:07:11.729Z,54.95
2019-03-30T09:09:39.539Z,54.61
2019-03-30T09:12:07.318Z,53.90
2019-03-30T09:14:35.128Z,54.24
2019-03-30T09:17:02.905Z,54.15
2019-03-30T09:19:30.715Z,53.40
2019-03-30T09:21:58.577Z,52.48
2019-03-30T09:24:26.378Z,52.24
2019-03-30T09:26:54.161Z,51.36
2019-03-30T09:29:21.959Z,50.93
2019-03-30T09:31:49.738Z,50.62
2019-03-30T09:34:17.557Z,51.37
2019-03-30T09:36:45.640Z,50.58
2019-03-30T09:39:13.306Z,48.92
2019-03-30T09:41:41.110Z,48.21
2019-03-30T09:44:08.897Z,49.22
2019-03-30T09:46:36.814Z,48.02
2019-03-30T09:49:04.602Z,49.04
2019-03-30T09:51:32.409Z,47.27
2019-03-30T09:54:00.190Z,48.23
2019-03-30T09:56:28.125Z,47.51
2019-03-30T09:58:55.842Z,47.58
2019-03-30T10:01:23.637Z,46.31
2019-03-30T10:03:51.446Z,46.28
2019-03-30T10:06:19.254Z,45.12
2019-03-30T10:08:47.047Z,44.64
2019-03-30T10:11:14.834Z,44.91
2019-03-30T10:13:42.630Z,45.26
2019-03-30T10:16:10.466Z,46.42
2019-03-30T10:18:38.258Z,44.58
2019-03-30T10:21:07.162Z,43.75
2019-03-30T10:23:34.953Z,43.58
2019-03-30T10:26:02.746Z,43.73
2019-03-30T10:28:30.539Z,43.25
2019-03-30T10:30:58.367Z,45.32
2019-03-30T10:33:26.150Z,42.75
2019-03-30T10:35:53.954Z,45.71
2019-03-30T10:38:21.774Z,43.81
2019-03-30T10:40:49.565Z,41.27
2019-03-30T10:43:17.361Z,42.79
2019-03-30T10:45:45.158Z,41.24
2019-03-30T10:48:12.963Z,40.98
2019-03-30T10:50:40.755Z,42.25
2019-03-30T10:53:08.562Z,41.91
2019-03-30T10:55:36.358Z,42.45
2019-03-30T10:58:04.177Z,43.33
2019-03-30T11:00:37.139Z,40.57
2019-03-30T11:03:04.942Z,42.04
2019-03-30T11:05:32.741Z,40.41
2019-03-30T11:08:00.565Z,40.15
2019-03-30T11:10:28.352Z,41.04
2019-03-30T11:12:56.149Z,40.54
2019-03-30T11:15:23.945Z,41.31
2019-03-30T11:17:51.746Z,40.42
2019-03-30T11:20:19.534Z,40.52
2019-03-30T11:22:47.350Z,38.67
2019-03-30T11:25:15.146Z,38.83
2019-03-30T11:27:43.101Z,37.74
2019-03-30T11:30:10.818Z,39.07
2019-03-30T11:32:38.633Z,39.35
2019-03-30T11:35:06.443Z,38.60
2019-03-30T11:37:34.253Z,36.70
2019-03-30T11:40:02.049Z,37.60
2019-03-30T11:42:29.853Z,38.98
2019-03-30T11:44:57.650Z,36.78
2019-03-30T11:47:25.466Z,37.28
2019-03-30T11:49:53.271Z,34.86
2019-03-30T11:52:21.090Z,36.81
2019-03-30T11:54:48.881Z,37.65
2019-03-30T11:57:16.688Z,35.45
2019-03-30T11:59:44.470Z,35.30
2019-03-30T12:02:12.326Z,36.14
2019-03-30T12:04:40.122Z,36.87
2019-03-30T12:07:07.951Z,35.14
2019-03-30T12:09:35.774Z,36.07
2019-03-30T12:12:03.554Z,35.81
2019-03-30T12:14:31.372Z,33.05
2019-03-30T12:16:59.196Z,33.52
2019-03-30T12:19:26.975Z,34.40
2019-03-30T12:21:54.750Z,36.28
2019-03-30T12:24:22.557Z,34.48
2019-03-30T12:26:50.329Z,33.67
2019-03-30T12:29:18.182Z,33.74
2019-03-30T12:31:45.966Z,32.31
2019-03-30T12:34:13.775Z,33.24
2019-03-30T12:36:41.590Z,32.97
2019-03-30T12:39:09.518Z,33.99
2019-03-30T12:41:37.297Z,33.54
2019-03-30T12:44:05.110Z,31.55
2019-03-30T12:46:32.941Z,32.74
2019-03-30T12:49:00.742Z,32.62
2019-03-30T12:51:28.546Z,33.36
2019-03-30T12:53:56.350Z,32.83
2019-03-30T12:56:24.142Z,34.13
2019-03-30T12:58:51.961Z,33.66
2019-03-30T13:01:19.767Z,32.83
2019-03-30T13:03:47.587Z,31.45
2019-03-30T13:06:15.366Z,30.61
2019-03-30T13:08:43.162Z,31.55
2019-03-30T13:11:11.057Z,32.64
2019-03-30T13:13:38.874Z,32.24
2019-03-30T13:16:06.655Z,33.21
2019-03-30T13:18:34.562Z,33.82
2019-03-30T13:21:02.344Z,33.58
2019-03-30T13:23:30.146Z,33.42
2019-03-30T13:26:03.998Z,32.02
2019-03-30T13:28:25.778Z,30.61
2019-03-30T13:30:53.558Z,30.71
2019-03-30T13:33:21.358Z,29.74
2019-03-30T13:35:49.173Z,31.25
2019-03-30T13:38:16.976Z,31.89
2019-03-30T13:40:44.750Z,30.76
2019-03-30T13:43:12.608Z,31.34
2019-03-30T13:45:40.410Z,31.35
2019-03-30T13:48:08.210Z,30.15
2019-03-30T13:50:36.014Z,31.16
2019-03-30T13:53:03.795Z,32.28
2019-03-30T13:55:31.610Z,32.13
2019-03-30T13:57:59.391Z,32.18
2019-03-30T14:00:27.186Z,30.84
2019-03-30T14:02:54.972Z,31.21
2019-03-30T14:05:22.779Z,31.10
2019-03-30T14:07:50.555Z,29.99
2019-03-30T14:10:18.357Z,31.08
2019-03-30T14:12:46.161Z,30.86
2019-03-30T14:15:13.957Z,31.01
2019-03-30T14:17:41.745Z,30.51
2019-03-30T14:20:09.554Z,30.06
2019-03-30T14:22:37.391Z,31.09
2019-03-30T14:25:05.934Z,31.18
2019-03-30T14:27:33.717Z,30.26
2019-03-30T14:30:01.525Z,30.66
2019-03-30T14:32:30.826Z,30.80
2019-03-30T14:34:58.623Z,30.79
2019-03-30T14:37:26.414Z,29.90
2019-03-30T14:39:54.219Z,29.99
2019-03-30T14:42:22.238Z,30.28
2019-03-30T14:44:50.036Z,29.38
2019-03-30T14:47:17.821Z,29.93
2019-03-30T14:49:45.630Z,30.71
2019-03-30T14:52:13.425Z,31.35
2019-03-30T14:54:52.251Z,30.14
2019-03-30T14:57:09.021Z,30.03
2019-03-30T14:59:36.839Z,30.03
2019-03-30T15:02:05.233Z,29.59
2019-03-30T15:04:33.045Z,30.34
2019-03-30T15:07:00.838Z,29.34
2019-03-30T15:09:28.613Z,30.62
2019-03-30T15:11:56.410Z,30.10
2019-03-30T15:14:24.202Z,30.34
2019-03-30T15:16:51.998Z,29.64
2019-03-30T15:19:20.012Z,29.16
2019-03-30T15:21:47.886Z,30.55
2019-03-30T15:24:15.661Z,30.13
2019-03-30T15:26:43.525Z,30.39
2019-03-30T15:29:11.327Z,29.78
2019-03-30T15:31:39.122Z,30.53
2019-03-30T15:34:06.914Z,30.60
2019-03-30T15:36:34.718Z,31.28
2019-03-30T15:39:02.721Z,30.07
2019-03-30T15:41:30.454Z,29.01
2019-03-30T15:43:58.278Z,29.85
2019-03-30T15:46:26.070Z,30.48
2019-03-30T15:48:53.857Z,28.92
2019-03-30T15:51:21.683Z,29.49
2019-03-30T15:53:49.476Z,29.75
2019-03-30T15:56:17.306Z,29.40
2019-03-30T15:58:45.097Z,28.23
2019-03-30T16:01:13.027Z,28.18
2019-03-30T16:03:40.813Z,28.84
2019-03-30T16:06:08.623Z,28.87
2019-03-30T16:08:36.778Z,29.79
2019-03-30T16:11:04.634Z,29.40
2019-03-30T16:13:32.433Z,30.39
2019-03-30T16:16:00.275Z,29.82
2019-03-30T16:18:28.086Z,29.61
2019-03-30T16:20:55.879Z,29.88
2019-03-30T16:23:23.675Z,29.34
2019-03-30T16:25:51.486Z,31.16
2019-03-30T16:28:19.286Z,30.49
2019-03-30T16:30:47.103Z,30.87
2019-03-30T16:33:14.895Z,31.25
2019-03-30T16:35:42.713Z,31.59
2019-03-30T16:38:10.494Z,30.57
2019-03-30T16:40:38.321Z,29.75
2019-03-30T16:43:08.423Z,29.98
2019-03-30T16:45:33.906Z,31.97
2019-03-30T16:48:01.726Z,31.51
2019-03-30T16:50:29.547Z,31.16
2019-03-30T16:52:57.374Z,31.33
2019-03-30T16:55:25.189Z,31.72
2019-03-30T16:57:52.960Z,31.94
2019-03-30T17:00:20.787Z,32.09
2019-03-30T17:02:48.585Z,32.33
2019-03-30T17:05:16.387Z,33.02
2019-03-30T17:07:44.261Z,33.40
2019-03-30T17:10:11.981Z,32.99
2019-03-30T17:12:39.822Z,32.55
2019-03-30T17:15:07.638Z,33.92
2019-03-30T17:17:35.571Z,33.70
2019-03-30T17:20:03.522Z,33.48
2019-03-30T17:22:31.338Z,33.46
2019-03-30T17:24:59.117Z,33.07
2019-03-30T17:27:26.922Z,32.88
2019-03-30T17:29:54.739Z,33.12
2019-03-30T17:32:22.970Z,32.81
2019-03-30T17:34:50.749Z,33.88
2019-03-30T17:37:18.558Z,33.21
2019-03-30T17:39:46.374Z,33.77
2019-03-30T17:42:14.182Z,35.18
2019-03-30T17:44:41.974Z,33.36
2019-03-30T17:47:09.817Z,37.63
2019-03-30T17:49:37.609Z,37.77
2019-03-30T17:52:05.434Z,36.98
2019-03-30T17:54:33.246Z,36.31
2019-03-30T17:57:01.051Z,35.88
2019-03-30T17:59:28.847Z,39.02
2019-03-30T18:01:56.650Z,38.77
2019-03-30T18:04:24.454Z,39.28
2019-03-30T18:06:52.241Z,41.56
2019-03-30T18:09:20.046Z,43.72
2019-03-30T18:11:47.830Z,42.02
2019-03-30T18:14:15.634Z,41.06
2019-03-30T18:16:43.430Z,40.80
2019-03-30T18:19:11.245Z,41.49
2019-03-30T18:21:39.029Z,41.34
2019-03-30T18:24:06.827Z,42.63
2019-03-30T18:26:34.630Z,42.81
2019-03-30T18:29:02.438Z,45.53
2019-03-30T18:31:30.234Z,45.26
2019-03-30T18:33:58.086Z,45.83
2019-03-30T18:36:26.074Z,44.29
2019-03-30T18:39:08.499Z,43.91
2019-03-30T18:41:21.643Z,46.18
2019-03-30T18:43:49.450Z,47.61
2019-03-30T18:46:17.234Z,47.15
2019-03-30T18:48:45.035Z,48.17
2019-03-30T18:51:12.846Z,47.17
2019-03-30T18:53:40.678Z,47.42
2019-03-30T18:56:08.466Z,47.26
2019-03-30T18:58:41.842Z,46.97
2019-03-30T19:01:04.065Z,46.76
2019-03-30T19:03:31.866Z,44.83
2019-03-30T19:05:59.653Z,44.01
2019-03-30T19:08:27.449Z,46.14
2019-03-30T19:10:55.225Z,48.06
2019-03-30T19:13:23.025Z,46.96
2019-03-30T19:15:50.838Z,47.45
2019-03-30T19:18:18.630Z,46.30
2019-03-30T19:20:46.418Z,48.63
2019-03-30T19:23:14.259Z,49.02
2019-03-30T19:25:42.058Z,49.31
2019-03-30T19:28:09.866Z,50.43
2019-03-30T19:30:37.651Z,51.59
2019-03-30T19:33:05.462Z,50.84
2019-03-30T19:35:33.241Z,51.54
2019-03-30T19:38:01.066Z,47.95
2019-03-30T19:40:28.863Z,48.98
2019-03-30T19:42:56.637Z,50.33
2019-03-30T19:45:24.434Z,50.31
2019-03-30T19:47:52.213Z,51.22
2019-03-30T19:50:20.143Z,49.94
2019-03-30T19:52:47.929Z,49.07
2019-03-30T19:55:15.727Z,49.65
2019-03-30T19:57:43.503Z,49.23
2019-03-30T20:00:11.902Z,48.51
2019-03-30T20:02:39.686Z,48.23
2019-03-30T20:05:07.481Z,48.00
2019-03-30T20:07:35.258Z,47.64
2019-03-30T20:10:03.172Z,49.34
2019-03-30T20:12:31.079Z,48.96
2019-03-30T20:14:58.752Z,50.19
2019-03-30T20:17:26.539Z,51.76
2019-03-30T20:19:54.330Z,53.71
2019-03-30T20:22:22.110Z,50.59
2019-03-30T20:24:49.922Z,53.21
2019-03-30T20:27:17.706Z,52.40
2019-03-30T20:29:46.215Z,51.98
2019-03-30T20:33:35.846Z,53.44
2019-03-30T20:36:03.626Z,53.13
2019-03-30T20:38:31.412Z,52.26
2019-03-30T20:40:59.205Z,51.43
2019-03-30T20:43:26.986Z,52.34
2019-03-30T20:45:54.816Z,52.39
2019-03-30T20:48:22.605Z,51.37
2019-03-30T20:50:50.425Z,50.32
2019-03-30T20:53:18.203Z,51.05
2019-03-30T20:55:46.006Z,53.28
2019-03-30T20:58:13.794Z,54.13
2019-03-30T21:00:41.594Z,54.07
2019-03-30T21:03:09.378Z,54.05
2019-03-30T21:05:37.202Z,53.26
2019-03-30T21:08:04.982Z,53.29
2019-03-30T21:10:32.783Z,54.92
2019-03-30T21:13:00.558Z,55.63
2019-03-30T21:15:28.398Z,55.17
2019-03-30T21:17:56.193Z,55.70
2019-03-30T21:20:24.000Z,55.95
2019-03-30T21:22:51.774Z,56.31
2019-03-30T21:25:19.585Z,56.05
2019-03-30T21:27:47.371Z,55.43
2019-03-30T21:30:15.242Z,54.87
2019-03-30T21:32:43.017Z,55.50
2019-03-30T21:35:10.807Z,56.00
2019-03-30T21:37:38.638Z,57.22
2019-03-30T21:40:06.434Z,58.20
2019-03-30T21:42:34.214Z,57.90
2019-03-30T21:45:02.043Z,57.46
2019-03-30T21:47:29.822Z,57.58
2019-03-30T21:49:57.622Z,57.80
2019-03-30T21:52:25.406Z,57.69
2019-03-30T21:54:53.298Z,57.83
2019-03-30T21:57:21.405Z,57.35
2019-03-30T21:59:49.169Z,56.09
2019-03-30T22:02:18.503Z,57.58
2019-03-30T22:04:46.315Z,58.23
2019-03-30T22:07:14.082Z,58.47
2019-03-30T22:09:42.128Z,56.99
2019-03-30T22:12:09.903Z,57.78
2019-03-30T22:14:37.685Z,58.96
2019-03-30T22:17:05.530Z,59.08
2019-03-30T22:19:33.316Z,56.26
2019-03-30T22:22:01.134Z,57.09
2019-03-30T22:24:28.925Z,58.40
2019-03-30T22:26:56.808Z,59.31
2019-03-30T22:29:24.534Z,59.42
2019-03-30T22:31:52.700Z,59.86
2019-03-30T22:34:20.411Z,61.44
2019-03-30T22:36:48.736Z,62.05
2019-03-30T22:39:16.551Z,63.80
2019-03-30T22:41:44.414Z,64.83
2019-03-30T22:44:12.214Z,66.34
2019-03-30T22:46:40.130Z,63.94
2019-03-30T22:49:08.275Z,64.72
2019-03-30T22:51:36.106Z,65.42
2019-03-30T22:54:03.898Z,65.66
2019-03-30T22:56:31.700Z,65.40
2019-03-30T22:58:59.482Z,65.16
2019-03-30T23:01:27.341Z,66.90
2019-03-30T23:03:55.593Z,65.69
2019-03-30T23:06:23.422Z,64.76
2019-03-30T23:08:51.218Z,67.90
2019-03-30T23:11:19.011Z,67.28
2019-03-30T23:13:46.816Z,70.00
2019-03-30T23:16:14.626Z,66.93
2019-03-30T23:18:45.300Z,64.43
2019-03-30T23:21:10.247Z,63.35
2019-03-30T23:23:38.030Z,64.08
2019-03-30T23:26:05.830Z,63.80
2019-03-30T23:28:33.613Z,63.40
2019-03-30T23:31:02.487Z,63.22
2019-03-30T23:33:30.275Z,64.81
2019-03-30T23:35:58.082Z,65.59
2019-03-30T23:38:25.861Z,65.33
2019-03-30T23:40:53.666Z,66.37
2019-03-30T23:43:21.448Z,66.25
2019-03-30T23:45:49.241Z,66.51
2019-03-30T23:48:17.257Z,66.81
2019-03-30T23:50:45.058Z,65.97
2019-03-30T23:53:12.838Z,66.90
2019-03-30T23:55:40.621Z,67.24
2019-03-30T23:58:08.484Z,67.05
